Time;durP1;ratioP1;P1;durP2;ratioP2;P2;SDS_P1;SDS_P2;PMS_P1;PMS_P2;Temp;Humidity;BMP_temperature;BMP_pressure;BME280_temperature;BME280_humidity;BME280_pressure;Samples;Min_cycle;Max_cycle;Signal;HPM_P1;HPM_P2
2023/05/25 00:01:01;;;;;;;11.48;4.18;;;;;;;;;;5007787;28;20034;-68
2023/05/25 00:03:26;;;;;;;8.57;4.10;;;;;;;;;;5009712;28;20030;-69
2023/05/25 00:05:52;;;;;;;9.53;4.10;;;;;;;;;;5003284;28;20033;-69
2023/05/25 00:08:17;;;;;;;12.23;4.30;;;;;;;;;;5006267;28;20019;-68
2023/05/25 00:10:42;;;;;;;8.98;3.75;;;;;;;;;;4998722;28;20060;-68
2023/05/25 00:13:08;;;;;;;8.93;4.05;;;;;;;;;;4994935;28;20034;-68
2023/05/25 00:15:34;;;;;;;11.35;4.38;;;;;;;;;;5009658;28;20036;-68
2023/05/25 00:17:59;;;;;;;8.98;3.90;;;;;;;;;;5009160;28;20481;-67
2023/05/25 00:20:24;;;;;;;10.02;3.78;;;;;;;;;;5008740;28;20014;-69
2023/05/25 00:22:51;;;;;;;9.98;3.85;;;;;;;;;;5004522;28;20437;-69
2023/05/25 00:25:16;;;;;;;14.00;4.32;;;;;;;;;;5004248;28;20026;-69
2023/05/25 00:27:41;;;;;;;10.13;4.00;;;;;;;;;;4998335;28;20393;-69
2023/05/25 00:30:06;;;;;;;9.98;3.65;;;;;;;;;;4997654;28;20120;-70
2023/05/25 00:32:32;;;;;;;9.25;3.70;;;;;;;;;;5003631;28;20452;-69
2023/05/25 00:34:57;;;;;;;12.43;3.72;;;;;;;;;;5001366;28;20034;-67
2023/05/25 00:37:22;;;;;;;11.15;4.15;;;;;;;;;;5001643;28;20437;-70
2023/05/25 00:39:47;;;;;;;11.33;4.30;;;;;;;;;;5004884;28;20117;-67
2023/05/25 00:42:12;;;;;;;8.87;3.83;;;;;;;;;;5008725;28;20378;-69
2023/05/25 00:44:37;;;;;;;11.82;3.97;;;;;;;;;;5001345;28;20080;-69
2023/05/25 00:47:03;;;;;;;10.20;4.00;;;;;;;;;;5000366;28;20113;-68
2023/05/25 00:49:30;;;;;;;11.15;4.10;;;;;;;;;;5002803;28;20573;-69
2023/05/25 00:51:56;;;;;;;11.32;3.83;;;;;;;;;;5000821;28;20397;-69
2023/05/25 00:54:21;;;;;;;10.30;4.45;;;;;;;;;;5005590;28;20470;-69
2023/05/25 00:56:50;;;;;;;11.87;4.30;;;;;;;;;;5007874;28;20030;-69
2023/05/25 00:59:18;;;;;;;10.75;4.35;;;;;;;;;;5005990;28;20064;-69
2023/05/25 01:01:44;;;;;;;12.73;4.22;;;;;;;;;;4999395;28;20065;-69
2023/05/25 01:04:13;;;;;;;9.35;3.90;;;;;;;;;;4996294;28;20307;-69
2023/05/25 01:06:42;;;;;;;11.55;4.30;;;;;;;;;;5009169;28;20478;-69
2023/05/25 01:09:07;;;;;;;12.77;4.07;;;;;;;;;;5001333;28;20045;-67
2023/05/25 01:11:36;;;;;;;11.70;4.55;;;;;;;;;;5002818;28;20147;-67
2023/05/25 01:14:01;;;;;;;12.40;4.53;;;;;;;;;;5004482;28;20025;-68
2023/05/25 01:16:27;;;;;;;9.75;4.13;;;;;;;;;;5005174;28;20022;-67
2023/05/25 01:18:52;;;;;;;17.55;4.30;;;;;;;;;;5007296;28;20069;-67
2023/05/25 01:21:22;;;;;;;12.88;4.65;;;;;;;;;;5001066;28;20010;-67
2023/05/25 01:23:54;;;;;;;9.52;4.10;;;;;;;;;;5002968;28;20108;-67
2023/05/25 01:26:22;;;;;;;11.52;4.35;;;;;;;;;;5000322;28;20112;-69
2023/05/25 01:28:50;;;;;;;9.80;4.00;;;;;;;;;;5007581;28;20021;-67
2023/05/25 01:31:17;;;;;;;11.40;4.55;;;;;;;;;;5006596;28;20037;-68
2023/05/25 01:33:43;;;;;;;11.25;4.57;;;;;;;;;;5001779;28;20034;-67
2023/05/25 01:36:08;;;;;;;13.57;4.60;;;;;;;;;;5006994;28;20018;-67
2023/05/25 01:38:34;;;;;;;13.17;4.33;;;;;;;;;;5005255;28;20037;-68
2023/05/25 01:40:59;;;;;;;11.05;4.47;;;;;;;;;;5006351;28;20500;-67
2023/05/25 01:43:24;;;;;;;13.40;5.18;;;;;;;;;;4999504;28;20022;-68
2023/05/25 01:45:50;;;;;;;13.53;4.27;;;;;;;;;;5009337;28;20060;-68
2023/05/25 01:48:29;;;;;;;12.40;4.45;;;;;;;;;;5003524;28;20389;-68
2023/05/25 01:50:58;;;;;;;11.02;4.45;;;;;;;;;;5003521;28;20022;-68
2023/05/25 01:53:27;;;;;;;12.60;5.10;;;;;;;;;;5009905;28;20032;-67
2023/05/25 01:55:55;;;;;;;11.73;4.68;;;;;;;;;;5010140;28;20096;-67
2023/05/25 01:58:20;;;;;;;10.05;4.90;;;;;;;;;;5001851;28;20033;-67
2023/05/25 02:00:48;;;;;;;12.32;4.47;;;;;;;;;;5008669;28;20087;-66
2023/05/25 02:03:13;;;;;;;9.25;4.15;;;;;;;;;;5006361;28;20026;-68
2023/05/25 02:05:40;;;;;;;14.73;4.60;;;;;;;;;;5001942;28;20029;-66
2023/05/25 02:08:05;;;;;;;;;;;;;;;;;;5006833;28;20030;-67
2023/05/25 02:10:30;;;;;;;10.77;4.30;;;;;;;;;;4999961;28;19959;-67
2023/05/25 02:12:55;;;;;;;11.40;4.43;;;;;;;;;;5004072;28;20026;-67
2023/05/25 02:15:20;;;;;;;11.23;4.57;;;;;;;;;;5001371;28;20030;-67
2023/05/25 02:17:45;;;;;;;9.73;4.07;;;;;;;;;;5002871;28;20022;-66
2023/05/25 02:20:11;;;;;;;9.23;4.10;;;;;;;;;;5000448;28;20490;-68
2023/05/25 02:22:36;;;;;;;10.45;4.15;;;;;;;;;;5004153;28;20493;-69
2023/05/25 02:25:02;;;;;;;9.57;4.55;;;;;;;;;;5006779;28;20018;-67
2023/05/25 02:27:27;;;;;;;11.70;5.03;;;;;;;;;;5002090;28;20030;-66
2023/05/25 02:29:52;;;;;;;11.82;4.25;;;;;;;;;;5000423;28;20034;-66
2023/05/25 02:32:17;;;;;;;9.00;4.20;;;;;;;;;;4998867;28;20022;-67
2023/05/25 02:34:42;;;;;;;12.20;4.73;;;;;;;;;;4998268;28;20061;-67
2023/05/25 02:37:07;;;;;;;11.88;4.03;;;;;;;;;;5006013;28;20034;-67
2023/05/25 02:39:33;;;;;;;9.10;3.92;;;;;;;;;;4996486;28;20025;-68
2023/05/25 02:41:58;;;;;;;11.05;4.68;;;;;;;;;;5000290;28;20026;-69
2023/05/25 02:44:23;;;;;;;10.93;4.10;;;;;;;;;;4997727;28;20054;-68
2023/05/25 02:46:48;;;;;;;10.30;4.37;;;;;;;;;;4991402;28;20054;-69
2023/05/25 02:49:13;;;;;;;10.57;4.30;;;;;;;;;;5000952;28;20026;-69
2023/05/25 02:51:38;;;;;;;9.68;4.20;;;;;;;;;;5001554;28;20046;-69
2023/05/25 02:54:04;;;;;;;10.05;3.88;;;;;;;;;;5010726;28;20029;-68
2023/05/25 02:56:30;;;;;;;11.07;3.70;;;;;;;;;;5013234;28;20021;-68
2023/05/25 02:58:55;;;;;;;11.15;4.13;;;;;;;;;;5003489;28;20049;-69
2023/05/25 03:01:20;;;;;;;8.70;3.90;;;;;;;;;;5005625;28;20026;-68
2023/05/25 03:03:46;;;;;;;9.02;3.95;;;;;;;;;;4999212;28;20363;-67
2023/05/25 03:06:12;;;;;;;9.95;4.20;;;;;;;;;;5004259;28;20027;-68
2023/05/25 03:08:38;;;;;;;9.70;4.28;;;;;;;;;;4998854;28;20025;-68
2023/05/25 03:11:03;;;;;;;11.40;4.43;;;;;;;;;;5007515;28;20029;-68
2023/05/25 03:13:28;;;;;;;11.20;4.50;;;;;;;;;;5006674;28;20425;-68
2023/05/25 03:15:53;;;;;;;7.50;3.70;;;;;;;;;;5010916;28;20018;-68
2023/05/25 03:18:19;;;;;;;11.30;4.50;;;;;;;;;;5002326;28;20053;-67
2023/05/25 03:20:44;;;;;;;9.67;3.70;;;;;;;;;;5006339;28;20053;-68
2023/05/25 03:23:09;;;;;;;9.50;4.03;;;;;;;;;;5002056;28;20014;-68
2023/05/25 03:25:35;;;;;;;10.50;4.20;;;;;;;;;;5004647;28;20064;-67
2023/05/25 03:28:00;;;;;;;12.15;4.70;;;;;;;;;;5001456;28;20026;-68
2023/05/25 03:30:25;;;;;;;11.00;4.40;;;;;;;;;;4996555;28;20029;-68
2023/05/25 03:32:51;;;;;;;12.50;4.45;;;;;;;;;;5005551;28;20033;-68
2023/05/25 03:35:16;;;;;;;8.23;3.92;;;;;;;;;;5007899;28;20243;-68
2023/05/25 03:37:41;;;;;;;9.73;4.50;;;;;;;;;;5004803;28;20029;-68
2023/05/25 03:40:08;;;;;;;11.77;4.38;;;;;;;;;;5000951;28;20018;-68
2023/05/25 03:42:33;;;;;;;9.45;4.18;;;;;;;;;;5006086;28;20032;-66
2023/05/25 03:44:58;;;;;;;8.30;3.95;;;;;;;;;;5001848;28;20101;-68
2023/05/25 03:47:23;;;;;;;9.48;4.00;;;;;;;;;;5008706;28;20031;-68
2023/05/25 03:49:49;;;;;;;10.27;4.05;;;;;;;;;;5006878;28;20441;-67
2023/05/25 03:52:14;;;;;;;11.67;4.33;;;;;;;;;;5003142;28;20049;-67
2023/05/25 03:54:39;;;;;;;11.88;4.32;;;;;;;;;;5009737;28;20022;-66
2023/05/25 03:57:05;;;;;;;7.93;3.97;;;;;;;;;;4996523;28;20033;-67
2023/05/25 03:59:30;;;;;;;11.93;4.10;;;;;;;;;;5007052;28;20383;-67
2023/05/25 04:01:55;;;;;;;10.00;4.23;;;;;;;;;;5001173;28;20064;-67
2023/05/25 04:04:20;;;;;;;12.13;4.60;;;;;;;;;;5010664;28;20053;-64
2023/05/25 04:06:47;;;;;;;11.05;4.38;;;;;;;;;;5005916;28;20482;-65
2023/05/25 04:09:13;;;;;;;12.32;4.50;;;;;;;;;;4999772;28;20014;-65
2023/05/25 04:11:38;;;;;;;9.70;4.27;;;;;;;;;;5008565;28;20525;-67
2023/05/25 04:14:03;;;;;;;10.38;4.13;;;;;;;;;;5003227;28;20034;-64
2023/05/25 04:16:28;;;;;;;12.48;4.22;;;;;;;;;;5006080;28;20026;-66
2023/05/25 04:18:54;;;;;;;8.32;4.10;;;;;;;;;;5001114;28;20029;-67
2023/05/25 04:21:19;;;;;;;10.70;3.95;;;;;;;;;;4996209;28;20060;-67
2023/05/25 04:23:45;;;;;;;12.30;4.03;;;;;;;;;;4998664;28;20072;-67
2023/05/25 04:26:10;;;;;;;10.25;4.53;;;;;;;;;;5000455;28;20040;-66
2023/05/25 04:28:35;;;;;;;8.67;3.90;;;;;;;;;;4999653;28;20026;-66
2023/05/25 04:31:01;;;;;;;10.73;4.38;;;;;;;;;;4995934;28;20030;-66
2023/05/25 04:33:28;;;;;;;10.73;3.88;;;;;;;;;;5003165;28;20036;-67
2023/05/25 04:35:57;;;;;;;10.02;3.97;;;;;;;;;;4999628;28;20498;-66
2023/05/25 04:38:23;;;;;;;8.75;4.22;;;;;;;;;;5007798;28;20053;-66
2023/05/25 04:40:48;;;;;;;12.48;4.43;;;;;;;;;;5001048;28;20145;-66
2023/05/25 04:43:16;;;;;;;12.63;4.15;;;;;;;;;;5005114;28;20045;-66
2023/05/25 04:45:42;;;;;;;8.50;3.65;;;;;;;;;;4999199;28;20096;-66
2023/05/25 04:48:08;;;;;;;10.48;3.88;;;;;;;;;;4997142;28;20062;-65
2023/05/25 04:50:33;;;;;;;8.85;3.78;;;;;;;;;;5005599;28;20066;-66
2023/05/25 04:52:58;;;;;;;10.17;4.07;;;;;;;;;;4994576;28;20085;-65
2023/05/25 04:55:23;;;;;;;11.63;3.58;;;;;;;;;;5000826;28;20683;-65
2023/05/25 04:57:48;;;;;;;11.10;3.97;;;;;;;;;;5003413;28;20187;-64
2023/05/25 05:00:14;;;;;;;12.32;4.82;;;;;;;;;;4995799;28;20033;-65
2023/05/25 05:02:39;;;;;;;12.13;4.32;;;;;;;;;;4990488;28;21006;-65
2023/05/25 05:05:05;;;;;;;8.40;3.87;;;;;;;;;;5002030;28;20125;-64
2023/05/25 05:07:30;;;;;;;9.60;3.67;;;;;;;;;;5003126;28;20480;-65
2023/05/25 05:09:55;;;;;;;10.23;4.10;;;;;;;;;;5001047;28;20056;-65
2023/05/25 05:12:20;;;;;;;11.45;4.05;;;;;;;;;;4999483;28;20546;-65
2023/05/25 05:14:46;;;;;;;12.77;4.03;;;;;;;;;;5001966;28;20065;-65
2023/05/25 05:17:11;;;;;;;9.43;3.83;;;;;;;;;;5004834;28;20017;-65
2023/05/25 05:19:36;;;;;;;9.63;4.00;;;;;;;;;;5008791;28;20026;-65
2023/05/25 05:22:01;;;;;;;9.27;3.93;;;;;;;;;;5002966;28;20025;-66
2023/05/25 05:24:27;;;;;;;9.40;3.80;;;;;;;;;;5001855;28;20018;-66
2023/05/25 05:26:52;;;;;;;11.30;4.38;;;;;;;;;;4999512;28;20153;-66
2023/05/25 05:29:18;;;;;;;10.45;4.20;;;;;;;;;;4998260;28;20023;-66
2023/05/25 05:31:43;;;;;;;;;;;;;;;;;;4991704;28;20410;-66
2023/05/25 05:34:08;;;;;;;10.43;4.35;;;;;;;;;;5000532;28;19917;-65
2023/05/25 05:36:34;;;;;;;9.73;4.10;;;;;;;;;;5016721;28;20025;-66
2023/05/25 05:38:59;;;;;;;11.25;4.70;;;;;;;;;;5008781;28;20156;-66
2023/05/25 05:41:26;;;;;;;9.98;4.05;;;;;;;;;;5021404;28;20014;-66
2023/05/25 05:43:51;;;;;;;11.88;4.47;;;;;;;;;;5030261;28;20158;-66
2023/05/25 05:46:16;;;;;;;9.20;3.80;;;;;;;;;;5030615;28;20493;-65
2023/05/25 05:48:41;;;;;;;11.25;4.35;;;;;;;;;;5024324;28;20032;-65
2023/05/25 05:51:06;;;;;;;9.33;3.80;;;;;;;;;;5028570;28;20021;-64
2023/05/25 05:53:34;;;;;;;10.87;4.10;;;;;;;;;;5002441;28;20555;-64
2023/05/25 05:55:59;;;;;;;9.65;3.83;;;;;;;;;;5007787;28;20084;-67
2023/05/25 05:58:25;;;;;;;9.40;3.93;;;;;;;;;;5006038;28;20038;-66
2023/05/25 06:00:51;;;;;;;9.25;3.63;;;;;;;;;;5008484;28;20026;-66
2023/05/25 06:03:16;;;;;;;9.55;4.28;;;;;;;;;;5005344;28;20024;-65
2023/05/25 06:05:41;;;;;;;9.02;3.63;;;;;;;;;;5009355;28;20141;-65
2023/05/25 06:08:08;;;;;;;10.65;4.18;;;;;;;;;;4998655;28;20041;-65
2023/05/25 06:10:34;;;;;;;12.02;4.18;;;;;;;;;;4994028;28;20014;-65
2023/05/25 06:12:59;;;;;;;13.73;4.17;;;;;;;;;;4999629;28;20052;-66
2023/05/25 06:15:24;;;;;;;10.80;4.22;;;;;;;;;;4998881;28;20026;-65
2023/05/25 06:17:49;;;;;;;9.73;4.10;;;;;;;;;;5002945;28;20505;-66
2023/05/25 06:20:14;;;;;;;10.60;4.10;;;;;;;;;;4997383;28;20029;-67
2023/05/25 06:22:40;;;;;;;11.00;4.20;;;;;;;;;;5007679;28;20516;-66
2023/05/25 06:25:05;;;;;;;10.13;4.00;;;;;;;;;;5009627;28;20062;-66
2023/05/25 06:27:30;;;;;;;8.95;3.75;;;;;;;;;;5003713;28;20026;-65
2023/05/25 06:29:55;;;;;;;11.07;3.83;;;;;;;;;;5013782;28;20014;-65
2023/05/25 06:32:20;;;;;;;10.90;4.25;;;;;;;;;;5011025;28;20085;-68
2023/05/25 06:34:45;;;;;;;9.90;4.28;;;;;;;;;;5009827;28;20436;-66
2023/05/25 06:37:11;;;;;;;11.30;3.75;;;;;;;;;;5003224;28;20073;-67
2023/05/25 06:39:36;;;;;;;9.83;4.20;;;;;;;;;;5009119;28;20030;-66
2023/05/25 06:42:01;;;;;;;9.17;3.90;;;;;;;;;;5007558;28;20133;-66
2023/05/25 06:44:26;;;;;;;10.18;3.83;;;;;;;;;;5012049;28;20021;-67
2023/05/25 06:46:51;;;;;;;10.65;3.83;;;;;;;;;;5008267;28;20090;-67
2023/05/25 06:49:16;;;;;;;8.07;3.33;;;;;;;;;;5002495;28;20018;-66
2023/05/25 06:51:42;;;;;;;8.23;3.30;;;;;;;;;;5009617;28;20024;-66
2023/05/25 06:54:07;;;;;;;10.07;3.83;;;;;;;;;;5006292;28;20044;-66
2023/05/25 06:56:32;;;;;;;10.45;3.90;;;;;;;;;;5006005;28;20028;-66
2023/05/25 06:58:57;;;;;;;12.80;4.13;;;;;;;;;;5010525;28;20022;-66
2023/05/25 07:01:22;;;;;;;7.28;3.58;;;;;;;;;;5011165;28;20036;-66
2023/05/25 07:03:48;;;;;;;8.13;3.53;;;;;;;;;;5018932;28;20056;-66
2023/05/25 07:06:14;;;;;;;11.00;4.10;;;;;;;;;;5033224;28;20382;-65
2023/05/25 07:08:39;;;;;;;9.70;3.60;;;;;;;;;;5032502;28;20017;-66
2023/05/25 07:11:04;;;;;;;10.10;3.80;;;;;;;;;;5012720;28;20549;-66
2023/05/25 07:13:29;;;;;;;7.73;3.13;;;;;;;;;;5010503;28;20033;-65
2023/05/25 07:15:54;;;;;;;11.93;4.10;;;;;;;;;;5009524;28;20018;-66
2023/05/25 07:18:20;;;;;;;13.20;3.88;;;;;;;;;;5010594;28;20060;-66
2023/05/25 07:20:45;;;;;;;11.70;3.78;;;;;;;;;;5010940;28;20045;-66
2023/05/25 07:23:10;;;;;;;8.23;3.73;;;;;;;;;;5012742;28;20076;-67
2023/05/25 07:25:39;;;;;;;11.15;3.80;;;;;;;;;;5013126;28;20653;-66
2023/05/25 07:28:04;;;;;;;11.85;3.75;;;;;;;;;;5008092;28;20500;-66
2023/05/25 07:30:29;;;;;;;9.83;3.20;;;;;;;;;;5004136;28;20037;-66
2023/05/25 07:32:56;;;;;;;8.70;3.00;;;;;;;;;;5008298;28;20113;-66
2023/05/25 07:35:21;;;;;;;8.30;2.90;;;;;;;;;;5010859;28;20025;-64
2023/05/25 07:37:54;;;;;;;9.47;3.07;;;;;;;;;;5015512;28;20026;-66
2023/05/25 07:40:19;;;;;;;6.78;2.85;;;;;;;;;;5004587;28;20022;-63
2023/05/25 07:42:45;;;;;;;9.95;3.55;;;;;;;;;;5010953;28;20470;-64
2023/05/25 07:45:11;;;;;;;13.03;3.83;;;;;;;;;;5012328;28;20169;-64
2023/05/25 07:47:36;;;;;;;12.05;3.67;;;;;;;;;;5012642;28;20489;-65
2023/05/25 07:50:02;;;;;;;10.27;2.90;;;;;;;;;;5011965;28;20109;-64
2023/05/25 07:52:27;;;;;;;11.70;3.30;;;;;;;;;;5010629;28;20041;-65
2023/05/25 07:54:52;;;;;;;11.63;3.28;;;;;;;;;;5012040;28;20022;-65
2023/05/25 07:57:17;;;;;;;11.50;3.40;;;;;;;;;;5012313;28;20022;-64
2023/05/25 07:59:43;;;;;;;14.23;3.53;;;;;;;;;;5011776;28;20050;-64
2023/05/25 08:02:08;;;;;;;13.23;3.20;;;;;;;;;;5012144;28;20065;-64
2023/05/25 08:04:34;;;;;;;14.70;3.50;;;;;;;;;;5012252;28;20026;-65
2023/05/25 08:06:59;;;;;;;10.85;3.42;;;;;;;;;;5011010;28;20048;-65
2023/05/25 08:09:24;;;;;;;11.43;3.00;;;;;;;;;;5010742;28;20097;-65
2023/05/25 08:11:49;;;;;;;11.85;3.35;;;;;;;;;;5004000;28;20054;-65
2023/05/25 08:14:15;;;;;;;9.20;3.13;;;;;;;;;;5007216;28;20021;-65
2023/05/25 08:16:40;;;;;;;8.15;2.97;;;;;;;;;;5003786;28;20487;-64
2023/05/25 08:19:05;;;;;;;10.50;2.90;;;;;;;;;;5011610;28;20025;-65
2023/05/25 08:21:33;;;;;;;8.73;2.70;;;;;;;;;;5011912;28;20026;-65
2023/05/25 08:24:02;;;;;;;12.25;3.22;;;;;;;;;;5009353;28;20014;-65
2023/05/25 08:26:27;;;;;;;9.23;3.53;;;;;;;;;;5012022;28;20045;-65
2023/05/25 08:28:53;;;;;;;9.82;3.50;;;;;;;;;;5011578;28;20068;-65
2023/05/25 08:31:18;;;;;;;8.32;2.95;;;;;;;;;;5001889;28;20030;-64
2023/05/25 08:33:43;;;;;;;12.32;3.53;;;;;;;;;;5007685;28;20018;-65
2023/05/25 08:36:08;;;;;;;8.30;3.10;;;;;;;;;;5009556;28;20076;-65
2023/05/25 08:38:33;;;;;;;8.98;2.58;;;;;;;;;;5011032;28;20034;-64
2023/05/25 08:41:02;;;;;;;7.68;2.45;;;;;;;;;;5011510;28;20021;-64
2023/05/25 08:43:27;;;;;;;6.85;2.40;;;;;;;;;;5002489;28;20025;-65
2023/05/25 08:45:53;;;;;;;13.00;3.37;;;;;;;;;;4994842;28;20078;-64
2023/05/25 08:48:20;;;;;;;11.20;3.22;;;;;;;;;;4993195;28;20488;-65
2023/05/25 08:50:46;;;;;;;9.68;3.60;;;;;;;;;;5013991;28;20029;-64
2023/05/25 08:53:12;;;;;;;11.05;3.33;;;;;;;;;;5000305;28;20371;-66
2023/05/25 08:55:38;;;;;;;9.25;2.88;;;;;;;;;;4991976;28;20037;-65
2023/05/25 08:58:22;;;;;;;11.85;3.60;;;;;;;;;;4991617;28;20066;-65
2023/05/25 09:00:50;;;;;;;9.25;3.50;;;;;;;;;;4991478;28;20544;-64
2023/05/25 09:03:19;;;;;;;9.98;3.33;;;;;;;;;;4995180;28;20022;-64
2023/05/25 09:05:44;;;;;;;9.25;3.08;;;;;;;;;;5009202;28;20485;-65
2023/05/25 09:08:10;;;;;;;9.27;3.50;;;;;;;;;;5009745;28;20034;-64
2023/05/25 09:10:35;;;;;;;9.80;3.30;;;;;;;;;;5005452;28;20026;-65
2023/05/25 09:13:01;;;;;;;12.15;3.42;;;;;;;;;;5020344;28;20092;-65
2023/05/25 09:15:26;;;;;;;10.77;3.42;;;;;;;;;;5003014;28;20032;-65
2023/05/25 09:17:51;;;;;;;8.30;3.38;;;;;;;;;;4994620;28;20023;-64
2023/05/25 09:20:17;;;;;;;8.17;3.00;;;;;;;;;;4991721;28;20018;-65
2023/05/25 09:22:43;;;;;;;9.07;3.25;;;;;;;;;;4991358;28;20598;-65
2023/05/25 09:25:09;;;;;;;10.38;3.08;;;;;;;;;;5013502;28;20045;-66
2023/05/25 09:27:36;;;;;;;10.10;3.25;;;;;;;;;;5028963;28;20366;-67
2023/05/25 09:30:01;;;;;;;12.48;3.55;;;;;;;;;;5000551;28;20477;-67
2023/05/25 09:32:27;;;;;;;9.23;2.95;;;;;;;;;;4990342;28;20026;-65
2023/05/25 09:34:54;;;;;;;9.77;3.30;;;;;;;;;;5001816;28;20074;-65
2023/05/25 09:37:20;;;;;;;12.82;3.65;;;;;;;;;;5010924;28;20094;-65
2023/05/25 09:39:46;;;;;;;10.60;3.15;;;;;;;;;;5016672;28;20121;-65
2023/05/25 09:42:11;;;;;;;;;;;;;;;;;;5029752;28;20029;-65
2023/05/25 09:44:36;;;;;;;11.60;3.30;;;;;;;;;;5002630;28;19905;-65
2023/05/25 09:47:02;;;;;;;10.02;3.13;;;;;;;;;;4992816;28;20121;-65
2023/05/25 09:49:27;;;;;;;9.68;2.97;;;;;;;;;;4990540;28;20046;-65
2023/05/25 09:51:52;;;;;;;9.93;3.40;;;;;;;;;;4990733;28;20494;-64
2023/05/25 09:54:17;;;;;;;10.15;3.28;;;;;;;;;;5018307;28;20018;-65
2023/05/25 09:56:43;;;;;;;7.57;2.90;;;;;;;;;;5008959;28;20026;-64
2023/05/25 09:59:10;;;;;;;11.45;3.10;;;;;;;;;;5007956;28;20463;-64
2023/05/25 10:01:35;;;;;;;10.23;3.70;;;;;;;;;;5012838;28;20049;-65
2023/05/25 10:04:00;;;;;;;16.13;3.45;;;;;;;;;;5012286;28;20061;-63
2023/05/25 10:06:26;;;;;;;10.13;3.50;;;;;;;;;;5009949;28;20022;-64
2023/05/25 10:08:52;;;;;;;9.77;3.20;;;;;;;;;;5007394;28;20377;-64
2023/05/25 10:11:17;;;;;;;;;;;;;;;;;;5008089;28;20068;-65
2023/05/25 10:13:43;;;;;;;11.18;3.13;;;;;;;;;;5007331;28;19992;-64
2023/05/25 10:16:12;;;;;;;12.55;3.42;;;;;;;;;;4994694;28;20022;-64
2023/05/25 10:18:39;;;;;;;9.25;3.00;;;;;;;;;;4994261;28;20157;-65
2023/05/25 10:21:07;;;;;;;8.95;2.70;;;;;;;;;;4994888;28;20026;-66
2023/05/25 10:23:36;;;;;;;8.20;3.38;;;;;;;;;;4999164;28;20105;-65
2023/05/25 10:26:04;;;;;;;8.18;2.53;;;;;;;;;;5025176;28;20156;-64
2023/05/25 10:28:34;;;;;;;10.80;3.45;;;;;;;;;;5005364;28;20025;-65
2023/05/25 10:30:59;;;;;;;10.15;3.03;;;;;;;;;;5017459;28;20025;-65
2023/05/25 10:33:24;;;;;;;6.75;2.92;;;;;;;;;;5019668;28;20105;-64
2023/05/25 10:35:50;;;;;;;9.83;3.37;;;;;;;;;;5013108;28;20033;-64
2023/05/25 10:38:15;;;;;;;7.23;3.10;;;;;;;;;;5008262;28;20492;-64
2023/05/25 10:40:43;;;;;;;8.85;3.40;;;;;;;;;;5012154;28;20514;-64
2023/05/25 10:43:08;;;;;;;8.30;2.97;;;;;;;;;;5011948;28;20432;-65
2023/05/25 10:45:33;;;;;;;8.03;2.80;;;;;;;;;;5011382;28;20026;-65
2023/05/25 10:47:59;;;;;;;9.98;3.30;;;;;;;;;;5013519;28;20080;-64
2023/05/25 10:50:27;;;;;;;10.40;3.23;;;;;;;;;;5012104;28;20412;-64
2023/05/25 10:52:56;;;;;;;9.38;3.20;;;;;;;;;;5013716;28;20026;-64
2023/05/25 10:55:21;;;;;;;7.88;2.80;;;;;;;;;;5014382;28;20028;-64
2023/05/25 10:57:46;;;;;;;11.00;3.65;;;;;;;;;;5013754;28;20104;-64
2023/05/25 11:00:12;;;;;;;9.45;3.22;;;;;;;;;;5012585;28;20025;-65
2023/05/25 11:02:52;;;;;;;8.43;2.67;;;;;;;;;;5005868;28;20557;-65
2023/05/25 11:05:26;;;;;;;6.70;2.47;;;;;;;;;;4994214;28;20077;-64
2023/05/25 11:07:52;;;;;;;7.65;2.70;;;;;;;;;;5015537;28;20037;-65
2023/05/25 11:10:37;;;;;;;8.88;3.13;;;;;;;;;;5008723;28;20010;-65
2023/05/25 11:13:21;;;;;;;7.72;2.63;;;;;;;;;;5012989;28;20021;-65
2023/05/25 11:15:47;;;;;;;9.70;3.08;;;;;;;;;;5013549;28;20022;-65
2023/05/25 11:18:15;;;;;;;9.90;3.20;;;;;;;;;;5013228;28;20536;-65
2023/05/25 11:20:40;;;;;;;8.75;3.17;;;;;;;;;;5010985;28;20457;-65
2023/05/25 11:23:22;;;;;;;8.45;3.00;;;;;;;;;;5019287;28;20037;-65
2023/05/25 11:25:47;;;;;;;6.25;2.60;;;;;;;;;;5004705;28;20442;-65
2023/05/25 11:28:12;;;;;;;7.33;2.70;;;;;;;;;;5012738;28;20068;-64
2023/05/25 11:30:38;;;;;;;6.83;2.47;;;;;;;;;;5006715;28;20084;-65
2023/05/25 11:33:06;;;;;;;8.38;2.63;;;;;;;;;;5012626;28;20091;-64
2023/05/25 11:35:37;;;;;;;9.82;3.05;;;;;;;;;;5003978;28;20036;-65
2023/05/25 11:38:05;;;;;;;8.82;2.70;;;;;;;;;;4994352;28;20025;-64
2023/05/25 11:40:30;;;;;;;10.30;2.78;;;;;;;;;;5006379;28;20018;-65
2023/05/25 11:42:55;;;;;;;9.98;2.88;;;;;;;;;;5012590;28;20090;-65
2023/05/25 11:45:21;;;;;;;7.60;2.40;;;;;;;;;;5015851;28;20036;-65
2023/05/25 11:47:46;;;;;;;8.90;2.83;;;;;;;;;;5011869;28;20030;-66
2023/05/25 11:50:15;;;;;;;7.67;2.93;;;;;;;;;;5000930;28;20995;-66
2023/05/25 11:52:41;;;;;;;10.88;3.17;;;;;;;;;;4993008;28;20026;-65
2023/05/25 11:55:10;;;;;;;7.07;2.73;;;;;;;;;;4992667;28;20106;-65
2023/05/25 11:57:36;;;;;;;8.63;2.70;;;;;;;;;;4992903;28;20022;-65
2023/05/25 12:00:05;;;;;;;9.20;2.80;;;;;;;;;;5004536;28;20034;-65
2023/05/25 12:02:35;;;;;;;7.07;2.50;;;;;;;;;;5030100;28;20033;-64
2023/05/25 12:05:01;;;;;;;7.55;2.70;;;;;;;;;;5011035;28;20437;-66
2023/05/25 12:07:27;;;;;;;8.00;2.50;;;;;;;;;;5012167;28;20045;-65
2023/05/25 12:09:52;;;;;;;;;;;;;;;;;;4995687;28;20073;-64
2023/05/25 12:12:18;;;;;;;7.95;2.50;;;;;;;;;;5006555;28;19913;-64
2023/05/25 12:14:46;;;;;;;8.32;2.47;;;;;;;;;;5012215;28;20025;-64
2023/05/25 12:17:12;;;;;;;7.55;3.00;;;;;;;;;;5003083;28;20029;-64
2023/05/25 12:19:37;;;;;;;8.27;2.77;;;;;;;;;;4997737;28;20022;-64
2023/05/25 12:22:02;;;;;;;9.00;2.90;;;;;;;;;;5011399;28;20025;-64
2023/05/25 12:24:27;;;;;;;6.63;2.60;;;;;;;;;;5010883;28;20025;-65
2023/05/25 12:26:57;;;;;;;7.43;2.80;;;;;;;;;;4997884;28;20080;-64
2023/05/25 12:29:24;;;;;;;10.48;2.65;;;;;;;;;;4988827;28;20378;-64
2023/05/25 12:31:49;;;;;;;;;;;;;;;;;;4999173;28;20145;-64
2023/05/25 12:34:15;;;;;;;6.10;2.28;;;;;;;;;;5007076;28;20380;-64
2023/05/25 12:36:45;;;;;;;6.70;2.40;;;;;;;;;;5008465;28;20026;-65
2023/05/25 12:39:11;;;;;;;6.50;2.30;;;;;;;;;;5005204;28;20030;-64
2023/05/25 12:41:46;;;;;;;6.95;2.53;;;;;;;;;;5005599;28;20366;-63
2023/05/25 12:44:25;;;;;;;6.72;2.28;;;;;;;;;;5002234;28;20117;-64
2023/05/25 12:46:51;;;;;;;6.18;2.55;;;;;;;;;;5008448;28;20048;-64
2023/05/25 12:49:27;;;;;;;8.02;2.60;;;;;;;;;;5007415;28;20022;-64
2023/05/25 12:51:52;;;;;;;9.15;2.70;;;;;;;;;;4992779;28;20101;-64
2023/05/25 12:54:32;;;;;;;9.13;2.90;;;;;;;;;;5008473;28;20109;-65
2023/05/25 12:56:57;;;;;;;9.23;2.80;;;;;;;;;;5003384;28;20489;-66
2023/05/25 12:59:22;;;;;;;10.73;2.58;;;;;;;;;;4998575;28;20029;-65
2023/05/25 13:01:48;;;;;;;7.95;2.55;;;;;;;;;;4998102;28;20386;-64
2023/05/25 13:04:13;;;;;;;8.13;2.53;;;;;;;;;;4994932;28;20021;-65
2023/05/25 13:06:38;;;;;;;5.90;2.30;;;;;;;;;;5011179;28;20072;-65
2023/05/25 13:09:03;;;;;;;7.13;2.40;;;;;;;;;;5005348;28;20029;-65
2023/05/25 13:11:29;;;;;;;9.20;2.80;;;;;;;;;;5011426;28;20097;-65
2023/05/25 13:13:54;;;;;;;7.28;2.50;;;;;;;;;;5008912;28;20555;-68
2023/05/25 13:16:19;;;;;;;7.93;2.20;;;;;;;;;;4991891;28;20034;-65
2023/05/25 13:18:44;;;;;;;7.30;2.43;;;;;;;;;;5006449;28;20025;-64
2023/05/25 13:21:09;;;;;;;7.60;2.50;;;;;;;;;;4999577;28;20030;-65
2023/05/25 13:23:35;;;;;;;7.38;2.70;;;;;;;;;;4999027;28;20034;-64
2023/05/25 13:26:00;;;;;;;7.05;2.30;;;;;;;;;;5007632;28;20034;-65
2023/05/25 13:28:26;;;;;;;6.50;2.33;;;;;;;;;;4995924;28;20049;-65
2023/05/25 13:30:51;;;;;;;7.17;2.53;;;;;;;;;;5018950;28;20029;-64
2023/05/25 13:33:16;;;;;;;7.53;2.90;;;;;;;;;;5010600;28;20032;-64
2023/05/25 13:35:56;;;;;;;8.13;2.43;;;;;;;;;;5003429;28;20030;-65
2023/05/25 13:38:21;;;;;;;8.50;2.67;;;;;;;;;;4994591;28;20034;-65
2023/05/25 13:40:46;;;;;;;7.38;2.70;;;;;;;;;;4998500;28;20091;-64
2023/05/25 13:43:12;;;;;;;8.05;2.83;;;;;;;;;;5007042;28;20026;-64
2023/05/25 13:45:37;;;;;;;6.32;2.50;;;;;;;;;;5004303;28;20723;-64
2023/05/25 13:48:02;;;;;;;6.47;2.53;;;;;;;;;;5008269;28;20103;-65
2023/05/25 13:50:27;;;;;;;7.05;2.40;;;;;;;;;;5011557;28;20060;-64
2023/05/25 13:52:52;;;;;;;8.23;2.70;;;;;;;;;;5001490;28;20437;-64
2023/05/25 13:55:18;;;;;;;7.22;2.80;;;;;;;;;;5010279;28;20022;-66
2023/05/25 13:57:43;;;;;;;8.50;2.63;;;;;;;;;;5009261;28;20538;-64
2023/05/25 14:00:08;;;;;;;8.40;2.97;;;;;;;;;;5007609;28;20072;-65
2023/05/25 14:02:33;;;;;;;6.87;2.20;;;;;;;;;;4996085;28;20045;-65
2023/05/25 14:04:59;;;;;;;9.10;2.90;;;;;;;;;;5000869;28;20429;-64
2023/05/25 14:07:24;;;;;;;8.88;2.95;;;;;;;;;;5005240;28;20036;-65
2023/05/25 14:09:49;;;;;;;8.23;2.80;;;;;;;;;;5009811;28;20034;-64
2023/05/25 14:12:14;;;;;;;7.47;2.53;;;;;;;;;;5010088;28;20022;-64
2023/05/25 14:14:39;;;;;;;7.07;2.50;;;;;;;;;;5017217;28;20018;-64
2023/05/25 14:17:04;;;;;;;6.63;2.40;;;;;;;;;;5009553;28;20030;-64
2023/05/25 14:19:30;;;;;;;7.25;2.60;;;;;;;;;;5003268;28;20033;-66
2023/05/25 14:21:55;;;;;;;6.97;2.40;;;;;;;;;;5013112;28;20013;-65
2023/05/25 14:24:20;;;;;;;10.27;2.72;;;;;;;;;;5010211;28;20014;-66
2023/05/25 14:26:45;;;;;;;7.27;2.60;;;;;;;;;;5010418;28;20026;-66
2023/05/25 14:29:10;;;;;;;7.03;2.53;;;;;;;;;;5010001;28;20026;-65
2023/05/25 14:31:35;;;;;;;8.65;2.80;;;;;;;;;;5009449;28;20038;-64